Terminal Aerodrome Forecast
Issued by NWS

Home | Current Version | Previous Version | Text Only | Print | Product List | Glossary On
Versions: 1 2 3 4 5 6 7 8 9 10 11 12 13
018
FTUS43 KAPX 262320
TAFTVC
TAF
KTVC 262320Z 2700/2724 03008KT P6SM FEW060 BKN200
     FM270200 00000KT P6SM VCSH FEW060 BKN100
     FM270400 00000KT P6SM SCT250
     FM271600 25006KT P6SM FEW060 FEW250
     FM272100 31006KT P6SM SKC=

USA.gov is the U.S. government's official web portal to all federal, state and local government web resources and services.